sensor_id;sensor_type;location;lat;lon;timestamp;P1;durP1;ratioP1;P2;durP2;ratioP2
1523;SDS011;755;53.658;10.118;2022-08-19T00:06:28;29.95;;;15.20;;
1523;SDS011;755;53.658;10.118;2022-08-19T00:16:31;32.72;;;16.85;;
1523;SDS011;755;53.658;10.118;2022-08-19T00:26:38;26.20;;;14.15;;
1523;SDS011;755;53.658;10.118;2022-08-19T00:36:41;32.03;;;17.38;;
1523;SDS011;755;53.658;10.118;2022-08-19T00:46:49;34.05;;;18.20;;
1523;SDS011;755;53.658;10.118;2022-08-19T00:56:56;30.88;;;18.42;;
1523;SDS011;755;53.658;10.118;2022-08-19T01:07:01;35.70;;;19.10;;
1523;SDS011;755;53.658;10.118;2022-08-19T01:17:04;36.97;;;18.92;;
1523;SDS011;755;53.658;10.118;2022-08-19T01:27:12;39.53;;;22.40;;
1523;SDS011;755;53.658;10.118;2022-08-19T01:37:15;39.72;;;22.90;;
1523;SDS011;755;53.658;10.118;2022-08-19T01:47:19;36.22;;;20.80;;
1523;SDS011;755;53.658;10.118;2022-08-19T01:57:21;39.13;;;23.55;;
1523;SDS011;755;53.658;10.118;2022-08-19T02:07:26;53.42;;;24.73;;
1523;SDS011;755;53.658;10.118;2022-08-19T02:17:29;42.63;;;23.30;;
1523;SDS011;755;53.658;10.118;2022-08-19T02:27:33;46.08;;;22.00;;
1523;SDS011;755;53.658;10.118;2022-08-19T02:37:36;60.83;;;24.20;;
1523;SDS011;755;53.658;10.118;2022-08-19T02:47:57;54.83;;;22.98;;
1523;SDS011;755;53.658;10.118;2022-08-19T02:58:01;63.03;;;24.63;;
1523;SDS011;755;53.658;10.118;2022-08-19T03:08:05;52.65;;;25.10;;
1523;SDS011;755;53.658;10.118;2022-08-19T03:18:09;51.35;;;23.35;;
1523;SDS011;755;53.658;10.118;2022-08-19T03:28:14;51.97;;;21.92;;
1523;SDS011;755;53.658;10.118;2022-08-19T03:38:18;39.67;;;19.52;;
1523;SDS011;755;53.658;10.118;2022-08-19T03:48:24;38.58;;;18.60;;
1523;SDS011;755;53.658;10.118;2022-08-19T03:58:27;33.42;;;18.65;;
1523;SDS011;755;53.658;10.118;2022-08-19T04:08:32;32.33;;;19.70;;
1523;SDS011;755;53.658;10.118;2022-08-19T04:18:34;33.10;;;19.48;;
1523;SDS011;755;53.658;10.118;2022-08-19T04:28:38;49.17;;;22.42;;
1523;SDS011;755;53.658;10.118;2022-08-19T04:38:40;46.13;;;23.52;;
1523;SDS011;755;53.658;10.118;2022-08-19T04:48:44;60.38;;;27.23;;
1523;SDS011;755;53.658;10.118;2022-08-19T04:58:46;64.13;;;26.90;;
1523;SDS011;755;53.658;10.118;2022-08-19T05:08:50;52.38;;;24.63;;
1523;SDS011;755;53.658;10.118;2022-08-19T05:18:52;62.45;;;25.95;;
1523;SDS011;755;53.658;10.118;2022-08-19T05:29:13;57.75;;;24.98;;
1523;SDS011;755;53.658;10.118;2022-08-19T05:39:18;51.10;;;23.40;;
1523;SDS011;755;53.658;10.118;2022-08-19T05:49:23;44.47;;;21.65;;
1523;SDS011;755;53.658;10.118;2022-08-19T05:59:25;48.80;;;22.88;;
1523;SDS011;755;53.658;10.118;2022-08-19T06:09:29;45.55;;;21.95;;
1523;SDS011;755;53.658;10.118;2022-08-19T06:19:31;51.92;;;24.42;;
1523;SDS011;755;53.658;10.118;2022-08-19T06:29:34;59.22;;;23.95;;
1523;SDS011;755;53.658;10.118;2022-08-19T06:39:39;58.58;;;25.17;;
1523;SDS011;755;53.658;10.118;2022-08-19T06:49:44;56.90;;;23.05;;
1523;SDS011;755;53.658;10.118;2022-08-19T06:59:46;51.60;;;23.75;;
1523;SDS011;755;53.658;10.118;2022-08-19T07:09:49;57.20;;;24.70;;
1523;SDS011;755;53.658;10.118;2022-08-19T07:19:56;48.85;;;23.58;;
1523;SDS011;755;53.658;10.118;2022-08-19T07:40:08;54.13;;;22.40;;
1523;SDS011;755;53.658;10.118;2022-08-19T07:50:12;62.17;;;23.55;;
1523;SDS011;755;53.658;10.118;2022-08-19T08:00:14;63.92;;;24.42;;
1523;SDS011;755;53.658;10.118;2022-08-19T08:10:18;58.33;;;24.45;;
1523;SDS011;755;53.658;10.118;2022-08-19T08:20:20;56.63;;;24.90;;
1523;SDS011;755;53.658;10.118;2022-08-19T08:30:24;54.72;;;23.88;;
1523;SDS011;755;53.658;10.118;2022-08-19T08:40:28;57.88;;;24.45;;
1523;SDS011;755;53.658;10.118;2022-08-19T08:50:41;49.33;;;22.83;;
1523;SDS011;755;53.658;10.118;2022-08-19T09:00:48;54.88;;;23.20;;
1523;SDS011;755;53.658;10.118;2022-08-19T09:10:52;58.72;;;23.65;;
1523;SDS011;755;53.658;10.118;2022-08-19T09:20:56;48.17;;;23.35;;
1523;SDS011;755;53.658;10.118;2022-08-19T09:30:59;46.45;;;22.73;;
1523;SDS011;755;53.658;10.118;2022-08-19T09:41:02;53.55;;;24.77;;
1523;SDS011;755;53.658;10.118;2022-08-19T09:51:07;58.63;;;24.27;;
1523;SDS011;755;53.658;10.118;2022-08-19T10:01:15;51.97;;;23.95;;
1523;SDS011;755;53.658;10.118;2022-08-19T10:11:21;53.20;;;23.33;;
1523;SDS011;755;53.658;10.118;2022-08-19T10:21:27;43.75;;;22.15;;
1523;SDS011;755;53.658;10.118;2022-08-19T10:42:16;35.83;;;19.50;;
1523;SDS011;755;53.658;10.118;2022-08-19T10:52:27;34.40;;;18.27;;
1523;SDS011;755;53.658;10.118;2022-08-19T11:02:49;35.28;;;17.30;;
1523;SDS011;755;53.658;10.118;2022-08-19T11:12:53;33.72;;;18.27;;
1523;SDS011;755;53.658;10.118;2022-08-19T11:22:55;28.58;;;16.70;;
1523;SDS011;755;53.658;10.118;2022-08-19T11:32:58;26.60;;;16.25;;
1523;SDS011;755;53.658;10.118;2022-08-19T11:43:02;29.88;;;17.70;;
1523;SDS011;755;53.658;10.118;2022-08-19T11:53:06;32.80;;;16.58;;
1523;SDS011;755;53.658;10.118;2022-08-19T12:03:08;28.15;;;15.75;;
1523;SDS011;755;53.658;10.118;2022-08-19T12:13:12;33.40;;;15.15;;
1523;SDS011;755;53.658;10.118;2022-08-19T12:23:21;100.88;;;15.77;;
1523;SDS011;755;53.658;10.118;2022-08-19T12:33:49;22.45;;;13.48;;
1523;SDS011;755;53.658;10.118;2022-08-19T12:44:03;22.70;;;12.57;;
1523;SDS011;755;53.658;10.118;2022-08-19T12:54:12;22.10;;;11.57;;
1523;SDS011;755;53.658;10.118;2022-08-19T13:04:14;25.63;;;14.80;;
1523;SDS011;755;53.658;10.118;2022-08-19T13:14:19;23.15;;;13.30;;
1523;SDS011;755;53.658;10.118;2022-08-19T13:24:22;27.23;;;14.18;;
1523;SDS011;755;53.658;10.118;2022-08-19T13:34:33;24.02;;;12.13;;
1523;SDS011;755;53.658;10.118;2022-08-19T13:44:38;19.90;;;12.95;;
1523;SDS011;755;53.658;10.118;2022-08-19T13:54:42;18.67;;;11.57;;
1523;SDS011;755;53.658;10.118;2022-08-19T14:04:44;14.00;;;10.50;;
1523;SDS011;755;53.658;10.118;2022-08-19T14:14:47;20.50;;;12.20;;
1523;SDS011;755;53.658;10.118;2022-08-19T14:24:50;19.40;;;11.05;;
1523;SDS011;755;53.658;10.118;2022-08-19T14:34:53;21.90;;;10.32;;
1523;SDS011;755;53.658;10.118;2022-08-19T14:44:57;13.32;;;9.80;;
1523;SDS011;755;53.658;10.118;2022-08-19T14:55:01;17.02;;;9.68;;
1523;SDS011;755;53.658;10.118;2022-08-19T15:05:03;15.32;;;10.63;;
1523;SDS011;755;53.658;10.118;2022-08-19T15:15:08;15.05;;;11.15;;
1523;SDS011;755;53.658;10.118;2022-08-19T15:25:14;13.43;;;9.52;;
1523;SDS011;755;53.658;10.118;2022-08-19T15:35:22;16.37;;;10.90;;
1523;SDS011;755;53.658;10.118;2022-08-19T15:45:24;14.48;;;9.90;;
1523;SDS011;755;53.658;10.118;2022-08-19T15:55:34;15.13;;;11.43;;
1523;SDS011;755;53.658;10.118;2022-08-19T16:05:37;13.57;;;10.80;;
1523;SDS011;755;53.658;10.118;2022-08-19T16:16:00;14.77;;;10.15;;
1523;SDS011;755;53.658;10.118;2022-08-19T16:26:02;14.57;;;9.68;;
1523;SDS011;755;53.658;10.118;2022-08-19T16:36:05;13.35;;;9.45;;
1523;SDS011;755;53.658;10.118;2022-08-19T16:46:08;12.60;;;9.55;;
1523;SDS011;755;53.658;10.118;2022-08-19T16:56:12;9.95;;;8.77;;
1523;SDS011;755;53.658;10.118;2022-08-19T17:06:15;14.63;;;9.73;;
1523;SDS011;755;53.658;10.118;2022-08-19T17:16:21;13.55;;;10.40;;
1523;SDS011;755;53.658;10.118;2022-08-19T17:26:25;15.98;;;10.90;;
1523;SDS011;755;53.658;10.118;2022-08-19T17:36:31;13.90;;;10.50;;
1523;SDS011;755;53.658;10.118;2022-08-19T17:46:34;20.23;;;12.75;;
1523;SDS011;755;53.658;10.118;2022-08-19T17:56:37;17.95;;;11.50;;
1523;SDS011;755;53.658;10.118;2022-08-19T18:06:40;15.60;;;11.82;;
1523;SDS011;755;53.658;10.118;2022-08-19T18:16:44;16.48;;;11.63;;
1523;SDS011;755;53.658;10.118;2022-08-19T18:26:46;18.83;;;12.10;;
1523;SDS011;755;53.658;10.118;2022-08-19T18:36:49;14.55;;;11.52;;
1523;SDS011;755;53.658;10.118;2022-08-19T18:46:51;21.45;;;15.25;;
1523;SDS011;755;53.658;10.118;2022-08-19T18:57:12;16.30;;;13.23;;
1523;SDS011;755;53.658;10.118;2022-08-19T19:07:14;20.35;;;13.13;;
1523;SDS011;755;53.658;10.118;2022-08-19T19:17:18;17.45;;;13.82;;
1523;SDS011;755;53.658;10.118;2022-08-19T19:27:26;17.48;;;14.52;;
1523;SDS011;755;53.658;10.118;2022-08-19T19:37:29;19.92;;;14.32;;
1523;SDS011;755;53.658;10.118;2022-08-19T19:47:32;21.27;;;13.93;;
1523;SDS011;755;53.658;10.118;2022-08-19T19:57:35;20.50;;;15.95;;
1523;SDS011;755;53.658;10.118;2022-08-19T20:07:42;23.70;;;16.70;;
1523;SDS011;755;53.658;10.118;2022-08-19T20:18:02;23.65;;;16.95;;
1523;SDS011;755;53.658;10.118;2022-08-19T20:28:04;25.98;;;19.45;;
1523;SDS011;755;53.658;10.118;2022-08-19T20:38:08;28.08;;;19.40;;
1523;SDS011;755;53.658;10.118;2022-08-19T20:48:10;27.25;;;20.45;;
1523;SDS011;755;53.658;10.118;2022-08-19T20:58:14;22.58;;;18.25;;
1523;SDS011;755;53.658;10.118;2022-08-19T21:08:17;25.88;;;18.85;;
1523;SDS011;755;53.658;10.118;2022-08-19T21:18:21;25.10;;;18.20;;
1523;SDS011;755;53.658;10.118;2022-08-19T21:28:25;21.10;;;15.85;;
1523;SDS011;755;53.658;10.118;2022-08-19T21:38:29;23.33;;;17.55;;
1523;SDS011;755;53.658;10.118;2022-08-19T21:48:37;21.65;;;15.93;;
1523;SDS011;755;53.658;10.118;2022-08-19T22:21:13;21.27;;;17.02;;
1523;SDS011;755;53.658;10.118;2022-08-19T22:31:39;25.25;;;17.10;;
1523;SDS011;755;53.658;10.118;2022-08-19T22:42:19;27.35;;;18.05;;
1523;SDS011;755;53.658;10.118;2022-08-19T22:53:03;22.25;;;17.75;;
1523;SDS011;755;53.658;10.118;2022-08-19T23:03:30;24.23;;;18.80;;
1523;SDS011;755;53.658;10.118;2022-08-19T23:24:36;22.60;;;17.83;;
1523;SDS011;755;53.658;10.118;2022-08-19T23:56:56;30.13;;;21.83;;
